sensor_id;sensor_type;location;lat;lon;timestamp;P1;durP1;ratioP1;P2;durP2;ratioP2
74512;SDS011;62992;52.052;8.550;2023-04-25T00:00:54;4.95;;;1.75;;
74512;SDS011;62992;52.052;8.550;2023-04-25T00:03:38;5.47;;;1.27;;
74512;SDS011;62992;52.052;8.550;2023-04-25T00:06:23;3.30;;;2.07;;
74512;SDS011;62992;52.052;8.550;2023-04-25T00:09:09;1.77;;;1.50;;
74512;SDS011;62992;52.052;8.550;2023-04-25T00:11:54;2.25;;;1.50;;
74512;SDS011;62992;52.052;8.550;2023-04-25T00:14:39;3.80;;;1.38;;
74512;SDS011;62992;52.052;8.550;2023-04-25T00:17:23;3.55;;;1.42;;
74512;SDS011;62992;52.052;8.550;2023-04-25T00:20:10;2.40;;;1.40;;
74512;SDS011;62992;52.052;8.550;2023-04-25T00:22:55;3.30;;;1.52;;
74512;SDS011;62992;52.052;8.550;2023-04-25T00:25:39;6.70;;;1.90;;
74512;SDS011;62992;52.052;8.550;2023-04-25T00:28:23;6.93;;;2.17;;
74512;SDS011;62992;52.052;8.550;2023-04-25T00:31:08;3.67;;;1.73;;
74512;SDS011;62992;52.052;8.550;2023-04-25T00:33:52;3.75;;;1.88;;
74512;SDS011;62992;52.052;8.550;2023-04-25T00:36:36;3.83;;;2.05;;
74512;SDS011;62992;52.052;8.550;2023-04-25T00:39:21;3.78;;;1.77;;
74512;SDS011;62992;52.052;8.550;2023-04-25T00:42:06;4.13;;;1.60;;
74512;SDS011;62992;52.052;8.550;2023-04-25T00:44:51;2.83;;;1.98;;
74512;SDS011;62992;52.052;8.550;2023-04-25T00:47:36;4.10;;;1.67;;
74512;SDS011;62992;52.052;8.550;2023-04-25T00:50:21;5.13;;;1.30;;
74512;SDS011;62992;52.052;8.550;2023-04-25T00:53:06;3.67;;;1.60;;
74512;SDS011;62992;52.052;8.550;2023-04-25T00:55:51;2.08;;;1.35;;
74512;SDS011;62992;52.052;8.550;2023-04-25T00:58:35;4.78;;;1.88;;
74512;SDS011;62992;52.052;8.550;2023-04-25T01:01:21;6.05;;;2.15;;
74512;SDS011;62992;52.052;8.550;2023-04-25T01:04:05;1.95;;;1.48;;
74512;SDS011;62992;52.052;8.550;2023-04-25T01:06:49;2.58;;;1.52;;
74512;SDS011;62992;52.052;8.550;2023-04-25T01:09:33;4.63;;;1.42;;
74512;SDS011;62992;52.052;8.550;2023-04-25T01:12:18;2.95;;;1.70;;
74512;SDS011;62992;52.052;8.550;2023-04-25T01:15:03;3.33;;;1.50;;
74512;SDS011;62992;52.052;8.550;2023-04-25T01:17:47;2.95;;;2.05;;
74512;SDS011;62992;52.052;8.550;2023-04-25T01:20:32;4.22;;;1.60;;
74512;SDS011;62992;52.052;8.550;2023-04-25T01:23:17;5.32;;;1.67;;
74512;SDS011;62992;52.052;8.550;2023-04-25T01:26:03;3.30;;;1.83;;
74512;SDS011;62992;52.052;8.550;2023-04-25T01:28:47;2.85;;;1.92;;
74512;SDS011;62992;52.052;8.550;2023-04-25T01:31:32;10.40;;;2.50;;
74512;SDS011;62992;52.052;8.550;2023-04-25T01:34:18;1.85;;;1.02;;
74512;SDS011;62992;52.052;8.550;2023-04-25T01:37:02;6.47;;;1.50;;
74512;SDS011;62992;52.052;8.550;2023-04-25T01:39:46;7.80;;;2.88;;
74512;SDS011;62992;52.052;8.550;2023-04-25T01:42:32;4.50;;;1.45;;
74512;SDS011;62992;52.052;8.550;2023-04-25T01:45:17;5.43;;;1.90;;
74512;SDS011;62992;52.052;8.550;2023-04-25T01:48:02;3.15;;;1.85;;
74512;SDS011;62992;52.052;8.550;2023-04-25T01:50:46;5.07;;;2.10;;
74512;SDS011;62992;52.052;8.550;2023-04-25T01:53:31;9.75;;;1.98;;
74512;SDS011;62992;52.052;8.550;2023-04-25T01:56:17;4.18;;;1.58;;
74512;SDS011;62992;52.052;8.550;2023-04-25T01:59:02;1.55;;;1.10;;
74512;SDS011;62992;52.052;8.550;2023-04-25T02:01:49;3.65;;;1.40;;
74512;SDS011;62992;52.052;8.550;2023-04-25T02:04:33;3.25;;;1.63;;
74512;SDS011;62992;52.052;8.550;2023-04-25T02:07:16;1.88;;;1.35;;
74512;SDS011;62992;52.052;8.550;2023-04-25T02:10:01;4.00;;;1.20;;
74512;SDS011;62992;52.052;8.550;2023-04-25T02:12:45;1.58;;;1.40;;
74512;SDS011;62992;52.052;8.550;2023-04-25T02:15:29;6.45;;;1.60;;
74512;SDS011;62992;52.052;8.550;2023-04-25T02:18:13;4.35;;;1.63;;
74512;SDS011;62992;52.052;8.550;2023-04-25T02:20:59;3.08;;;1.45;;
74512;SDS011;62992;52.052;8.550;2023-04-25T02:23:44;1.75;;;1.10;;
74512;SDS011;62992;52.052;8.550;2023-04-25T02:26:32;2.63;;;1.27;;
74512;SDS011;62992;52.052;8.550;2023-04-25T02:29:16;4.35;;;1.85;;
74512;SDS011;62992;52.052;8.550;2023-04-25T02:32:00;4.95;;;1.02;;
74512;SDS011;62992;52.052;8.550;2023-04-25T02:34:44;2.85;;;1.05;;
74512;SDS011;62992;52.052;8.550;2023-04-25T02:37:28;1.63;;;1.10;;
74512;SDS011;62992;52.052;8.550;2023-04-25T02:40:12;4.93;;;1.20;;
74512;SDS011;62992;52.052;8.550;2023-04-25T02:42:56;1.88;;;0.93;;
74512;SDS011;62992;52.052;8.550;2023-04-25T02:45:41;1.17;;;0.75;;
74512;SDS011;62992;52.052;8.550;2023-04-25T02:48:25;6.50;;;1.45;;
74512;SDS011;62992;52.052;8.550;2023-04-25T02:51:09;1.20;;;0.90;;
74512;SDS011;62992;52.052;8.550;2023-04-25T02:53:53;3.65;;;0.98;;
74512;SDS011;62992;52.052;8.550;2023-04-25T02:56:37;3.80;;;1.27;;
74512;SDS011;62992;52.052;8.550;2023-04-25T02:59:21;2.00;;;1.00;;
74512;SDS011;62992;52.052;8.550;2023-04-25T03:02:05;5.32;;;1.42;;
74512;SDS011;62992;52.052;8.550;2023-04-25T03:04:49;2.85;;;1.10;;
74512;SDS011;62992;52.052;8.550;2023-04-25T03:07:33;3.10;;;0.70;;
74512;SDS011;62992;52.052;8.550;2023-04-25T03:10:18;4.03;;;1.08;;
74512;SDS011;62992;52.052;8.550;2023-04-25T03:13:02;2.72;;;0.98;;
74512;SDS011;62992;52.052;8.550;2023-04-25T03:15:46;1.60;;;0.80;;
74512;SDS011;62992;52.052;8.550;2023-04-25T03:18:30;3.28;;;0.60;;
74512;SDS011;62992;52.052;8.550;2023-04-25T03:21:14;2.65;;;1.05;;
74512;SDS011;62992;52.052;8.550;2023-04-25T03:23:58;2.75;;;1.38;;
74512;SDS011;62992;52.052;8.550;2023-04-25T03:26:43;3.25;;;1.20;;
74512;SDS011;62992;52.052;8.550;2023-04-25T03:29:27;4.70;;;1.25;;
74512;SDS011;62992;52.052;8.550;2023-04-25T03:32:12;1.60;;;0.90;;
74512;SDS011;62992;52.052;8.550;2023-04-25T03:34:56;4.75;;;1.05;;
74512;SDS011;62992;52.052;8.550;2023-04-25T03:37:40;3.88;;;1.00;;
74512;SDS011;62992;52.052;8.550;2023-04-25T03:40:29;2.72;;;0.63;;
74512;SDS011;62992;52.052;8.550;2023-04-25T03:43:13;3.05;;;1.05;;
74512;SDS011;62992;52.052;8.550;2023-04-25T03:45:57;6.68;;;1.13;;
74512;SDS011;62992;52.052;8.550;2023-04-25T03:48:41;1.23;;;0.82;;
74512;SDS011;62992;52.052;8.550;2023-04-25T03:51:25;3.25;;;1.02;;
74512;SDS011;62992;52.052;8.550;2023-04-25T03:54:09;5.90;;;1.27;;
74512;SDS011;62992;52.052;8.550;2023-04-25T03:56:53;9.52;;;1.40;;
74512;SDS011;62992;52.052;8.550;2023-04-25T03:59:38;4.03;;;1.73;;
74512;SDS011;62992;52.052;8.550;2023-04-25T04:02:22;4.70;;;1.25;;
74512;SDS011;62992;52.052;8.550;2023-04-25T04:05:06;4.93;;;1.13;;
74512;SDS011;62992;52.052;8.550;2023-04-25T04:07:50;4.57;;;1.25;;
74512;SDS011;62992;52.052;8.550;2023-04-25T04:10:34;4.93;;;0.98;;
74512;SDS011;62992;52.052;8.550;2023-04-25T04:13:18;1.45;;;0.90;;
74512;SDS011;62992;52.052;8.550;2023-04-25T04:16:02;3.92;;;1.45;;
74512;SDS011;62992;52.052;8.550;2023-04-25T04:18:47;3.42;;;1.17;;
74512;SDS011;62992;52.052;8.550;2023-04-25T04:21:31;5.53;;;1.15;;
74512;SDS011;62992;52.052;8.550;2023-04-25T04:24:16;4.20;;;1.73;;
74512;SDS011;62992;52.052;8.550;2023-04-25T04:27:01;3.70;;;1.38;;
74512;SDS011;62992;52.052;8.550;2023-04-25T04:29:45;2.65;;;1.10;;
74512;SDS011;62992;52.052;8.550;2023-04-25T04:32:30;2.03;;;0.63;;
74512;SDS011;62992;52.052;8.550;2023-04-25T04:35:16;7.97;;;1.05;;
74512;SDS011;62992;52.052;8.550;2023-04-25T04:38:00;4.30;;;1.02;;
74512;SDS011;62992;52.052;8.550;2023-04-25T04:40:44;6.93;;;1.33;;
74512;SDS011;62992;52.052;8.550;2023-04-25T04:43:28;1.25;;;0.60;;
74512;SDS011;62992;52.052;8.550;2023-04-25T04:46:13;3.58;;;1.00;;
74512;SDS011;62992;52.052;8.550;2023-04-25T04:48:58;3.47;;;0.50;;
74512;SDS011;62992;52.052;8.550;2023-04-25T04:51:41;3.85;;;1.10;;
74512;SDS011;62992;52.052;8.550;2023-04-25T04:54:28;7.25;;;1.52;;
74512;SDS011;62992;52.052;8.550;2023-04-25T04:57:12;2.05;;;1.02;;
74512;SDS011;62992;52.052;8.550;2023-04-25T04:59:56;18.52;;;1.83;;
74512;SDS011;62992;52.052;8.550;2023-04-25T05:02:40;2.55;;;1.25;;
74512;SDS011;62992;52.052;8.550;2023-04-25T05:05:24;3.38;;;1.30;;
74512;SDS011;62992;52.052;8.550;2023-04-25T05:08:09;1.48;;;1.33;;
74512;SDS011;62992;52.052;8.550;2023-04-25T05:10:53;7.47;;;1.38;;
74512;SDS011;62992;52.052;8.550;2023-04-25T05:13:37;3.70;;;1.27;;
74512;SDS011;62992;52.052;8.550;2023-04-25T05:16:21;6.28;;;1.80;;
74512;SDS011;62992;52.052;8.550;2023-04-25T05:19:04;5.25;;;2.08;;
74512;SDS011;62992;52.052;8.550;2023-04-25T05:21:49;6.13;;;1.38;;
74512;SDS011;62992;52.052;8.550;2023-04-25T05:24:34;6.05;;;1.67;;
74512;SDS011;62992;52.052;8.550;2023-04-25T05:27:18;8.38;;;2.05;;
74512;SDS011;62992;52.052;8.550;2023-04-25T05:30:03;6.97;;;2.33;;
74512;SDS011;62992;52.052;8.550;2023-04-25T05:35:33;5.78;;;1.83;;
74512;SDS011;62992;52.052;8.550;2023-04-25T05:38:18;2.10;;;1.35;;
74512;SDS011;62992;52.052;8.550;2023-04-25T05:41:02;5.75;;;1.65;;
74512;SDS011;62992;52.052;8.550;2023-04-25T05:43:46;3.17;;;1.33;;
74512;SDS011;62992;52.052;8.550;2023-04-25T05:46:33;9.55;;;2.17;;
74512;SDS011;62992;52.052;8.550;2023-04-25T05:49:17;4.22;;;1.42;;
74512;SDS011;62992;52.052;8.550;2023-04-25T05:52:01;4.68;;;1.50;;
74512;SDS011;62992;52.052;8.550;2023-04-25T05:54:45;2.95;;;1.15;;
74512;SDS011;62992;52.052;8.550;2023-04-25T05:57:29;3.25;;;1.20;;
74512;SDS011;62992;52.052;8.550;2023-04-25T06:00:13;1.70;;;1.55;;
74512;SDS011;62992;52.052;8.550;2023-04-25T06:02:59;6.25;;;1.50;;
74512;SDS011;62992;52.052;8.550;2023-04-25T06:05:43;8.30;;;1.35;;
74512;SDS011;62992;52.052;8.550;2023-04-25T06:08:27;6.75;;;0.90;;
74512;SDS011;62992;52.052;8.550;2023-04-25T06:11:11;7.90;;;1.08;;
74512;SDS011;62992;52.052;8.550;2023-04-25T06:13:56;3.72;;;1.33;;
74512;SDS011;62992;52.052;8.550;2023-04-25T06:16:40;1.05;;;0.68;;
74512;SDS011;62992;52.052;8.550;2023-04-25T06:19:24;3.53;;;1.08;;
74512;SDS011;62992;52.052;8.550;2023-04-25T06:22:08;0.60;;;0.60;;
74512;SDS011;62992;52.052;8.550;2023-04-25T06:24:52;2.75;;;1.05;;
74512;SDS011;62992;52.052;8.550;2023-04-25T06:27:36;4.82;;;0.75;;
74512;SDS011;62992;52.052;8.550;2023-04-25T06:30:20;3.30;;;0.85;;
74512;SDS011;62992;52.052;8.550;2023-04-25T06:33:08;5.03;;;0.68;;
74512;SDS011;62992;52.052;8.550;2023-04-25T06:35:52;6.90;;;0.95;;
74512;SDS011;62992;52.052;8.550;2023-04-25T06:38:36;4.97;;;1.20;;
74512;SDS011;62992;52.052;8.550;2023-04-25T06:41:20;1.73;;;0.60;;
74512;SDS011;62992;52.052;8.550;2023-04-25T06:44:04;3.15;;;1.27;;
74512;SDS011;62992;52.052;8.550;2023-04-25T06:46:48;1.52;;;0.75;;
74512;SDS011;62992;52.052;8.550;2023-04-25T06:49:33;6.38;;;0.82;;
74512;SDS011;62992;52.052;8.550;2023-04-25T06:52:17;2.10;;;0.60;;
74512;SDS011;62992;52.052;8.550;2023-04-25T06:55:01;2.22;;;0.93;;
74512;SDS011;62992;52.052;8.550;2023-04-25T06:57:46;4.68;;;1.00;;
74512;SDS011;62992;52.052;8.550;2023-04-25T07:00:30;2.50;;;0.90;;
74512;SDS011;62992;52.052;8.550;2023-04-25T07:03:15;2.35;;;0.70;;
74512;SDS011;62992;52.052;8.550;2023-04-25T07:05:59;5.60;;;0.93;;
74512;SDS011;62992;52.052;8.550;2023-04-25T07:08:43;4.15;;;1.08;;
74512;SDS011;62992;52.052;8.550;2023-04-25T07:11:27;2.28;;;0.75;;
74512;SDS011;62992;52.052;8.550;2023-04-25T07:14:11;5.50;;;1.00;;
74512;SDS011;62992;52.052;8.550;2023-04-25T07:16:56;7.97;;;0.90;;
74512;SDS011;62992;52.052;8.550;2023-04-25T07:19:40;6.70;;;1.30;;
74512;SDS011;62992;52.052;8.550;2023-04-25T07:22:24;7.15;;;1.98;;
74512;SDS011;62992;52.052;8.550;2023-04-25T07:25:10;4.38;;;0.90;;
74512;SDS011;62992;52.052;8.550;2023-04-25T07:27:54;2.25;;;0.55;;
74512;SDS011;62992;52.052;8.550;2023-04-25T07:30:38;2.47;;;0.70;;
74512;SDS011;62992;52.052;8.550;2023-04-25T07:33:22;4.38;;;1.25;;
74512;SDS011;62992;52.052;8.550;2023-04-25T07:36:06;2.08;;;0.82;;
74512;SDS011;62992;52.052;8.550;2023-04-25T07:38:51;4.60;;;0.90;;
74512;SDS011;62992;52.052;8.550;2023-04-25T07:41:35;1.60;;;0.47;;
74512;SDS011;62992;52.052;8.550;2023-04-25T07:44:19;1.00;;;0.50;;
74512;SDS011;62992;52.052;8.550;2023-04-25T07:47:07;6.93;;;1.17;;
74512;SDS011;62992;52.052;8.550;2023-04-25T07:49:51;1.83;;;0.73;;
74512;SDS011;62992;52.052;8.550;2023-04-25T07:52:35;3.25;;;0.55;;
74512;SDS011;62992;52.052;8.550;2023-04-25T07:55:19;4.75;;;1.35;;
74512;SDS011;62992;52.052;8.550;2023-04-25T07:58:04;3.85;;;0.70;;
74512;SDS011;62992;52.052;8.550;2023-04-25T08:00:48;1.83;;;0.60;;
74512;SDS011;62992;52.052;8.550;2023-04-25T08:03:33;2.00;;;0.50;;
74512;SDS011;62992;52.052;8.550;2023-04-25T08:06:17;4.15;;;0.88;;
74512;SDS011;62992;52.052;8.550;2023-04-25T08:09:02;2.20;;;0.32;;
74512;SDS011;62992;52.052;8.550;2023-04-25T08:11:46;3.00;;;0.80;;
74512;SDS011;62992;52.052;8.550;2023-04-25T08:14:31;2.33;;;0.60;;
74512;SDS011;62992;52.052;8.550;2023-04-25T08:17:19;1.77;;;0.50;;
74512;SDS011;62992;52.052;8.550;2023-04-25T08:20:03;3.55;;;0.60;;
74512;SDS011;62992;52.052;8.550;2023-04-25T08:22:49;0.90;;;0.47;;
74512;SDS011;62992;52.052;8.550;2023-04-25T08:25:33;2.38;;;0.88;;
74512;SDS011;62992;52.052;8.550;2023-04-25T08:28:17;3.20;;;1.10;;
74512;SDS011;62992;52.052;8.550;2023-04-25T08:31:01;4.75;;;0.80;;
74512;SDS011;62992;52.052;8.550;2023-04-25T08:33:45;2.97;;;0.65;;
74512;SDS011;62992;52.052;8.550;2023-04-25T08:36:30;2.55;;;0.60;;
74512;SDS011;62992;52.052;8.550;2023-04-25T08:39:15;3.38;;;0.60;;
74512;SDS011;62992;52.052;8.550;2023-04-25T08:41:59;1.10;;;0.40;;
74512;SDS011;62992;52.052;8.550;2023-04-25T08:44:47;3.53;;;0.88;;
74512;SDS011;62992;52.052;8.550;2023-04-25T08:47:33;2.70;;;0.77;;
74512;SDS011;62992;52.052;8.550;2023-04-25T08:50:21;1.30;;;1.15;;
74512;SDS011;62992;52.052;8.550;2023-04-25T08:53:07;0.68;;;0.45;;
74512;SDS011;62992;52.052;8.550;2023-04-25T08:55:58;0.63;;;0.35;;
74512;SDS011;62992;52.052;8.550;2023-04-25T08:58:47;1.38;;;0.63;;
74512;SDS011;62992;52.052;8.550;2023-04-25T09:01:36;3.60;;;0.70;;
74512;SDS011;62992;52.052;8.550;2023-04-25T09:04:21;0.75;;;0.70;;
74512;SDS011;62992;52.052;8.550;2023-04-25T09:07:05;1.77;;;0.52;;
74512;SDS011;62992;52.052;8.550;2023-04-25T09:09:49;3.38;;;0.75;;
74512;SDS011;62992;52.052;8.550;2023-04-25T09:12:33;3.00;;;0.43;;
74512;SDS011;62992;52.052;8.550;2023-04-25T09:15:19;1.90;;;0.60;;
74512;SDS011;62992;52.052;8.550;2023-04-25T09:18:03;1.65;;;0.60;;
74512;SDS011;62992;52.052;8.550;2023-04-25T09:20:47;3.50;;;0.73;;
74512;SDS011;62992;52.052;8.550;2023-04-25T09:23:31;1.20;;;0.50;;
74512;SDS011;62992;52.052;8.550;2023-04-25T09:26:24;1.83;;;0.95;;
74512;SDS011;62992;52.052;8.550;2023-04-25T09:29:09;2.92;;;0.63;;
74512;SDS011;62992;52.052;8.550;2023-04-25T09:31:57;2.78;;;0.80;;
74512;SDS011;62992;52.052;8.550;2023-04-25T09:34:59;1.92;;;0.50;;
74512;SDS011;62992;52.052;8.550;2023-04-25T09:37:43;1.13;;;0.47;;
74512;SDS011;62992;52.052;8.550;2023-04-25T09:40:29;1.73;;;0.68;;
74512;SDS011;62992;52.052;8.550;2023-04-25T09:43:20;0.98;;;0.70;;
74512;SDS011;62992;52.052;8.550;2023-04-25T09:46:09;2.13;;;0.50;;
74512;SDS011;62992;52.052;8.550;2023-04-25T09:48:55;1.80;;;0.47;;
74512;SDS011;62992;52.052;8.550;2023-04-25T09:51:39;1.63;;;0.40;;
74512;SDS011;62992;52.052;8.550;2023-04-25T09:54:23;2.15;;;0.65;;
74512;SDS011;62992;52.052;8.550;2023-04-25T09:57:10;0.30;;;0.30;;
74512;SDS011;62992;52.052;8.550;2023-04-25T09:59:55;2.50;;;0.38;;
74512;SDS011;62992;52.052;8.550;2023-04-25T10:02:39;2.53;;;0.43;;
74512;SDS011;62992;52.052;8.550;2023-04-25T10:05:26;4.75;;;0.88;;
74512;SDS011;62992;52.052;8.550;2023-04-25T10:08:14;0.57;;;0.50;;
74512;SDS011;62992;52.052;8.550;2023-04-25T10:13:45;2.75;;;0.47;;
74512;SDS011;62992;52.052;8.550;2023-04-25T10:16:31;1.63;;;0.50;;
74512;SDS011;62992;52.052;8.550;2023-04-25T10:19:16;0.60;;;0.20;;
74512;SDS011;62992;52.052;8.550;2023-04-25T10:22:10;0.88;;;0.63;;
74512;SDS011;62992;52.052;8.550;2023-04-25T10:25:00;3.60;;;0.47;;
74512;SDS011;62992;52.052;8.550;2023-04-25T10:27:47;0.43;;;0.20;;
74512;SDS011;62992;52.052;8.550;2023-04-25T10:30:35;7.93;;;0.45;;
74512;SDS011;62992;52.052;8.550;2023-04-25T10:33:21;0.85;;;0.77;;
74512;SDS011;62992;52.052;8.550;2023-04-25T10:36:21;1.55;;;0.40;;
74512;SDS011;62992;52.052;8.550;2023-04-25T10:39:06;0.13;;;0.13;;
74512;SDS011;62992;52.052;8.550;2023-04-25T10:44:39;1.33;;;0.82;;
74512;SDS011;62992;52.052;8.550;2023-04-25T10:47:34;2.00;;;0.40;;
74512;SDS011;62992;52.052;8.550;2023-04-25T10:50:19;0.57;;;0.47;;
74512;SDS011;62992;52.052;8.550;2023-04-25T10:53:13;2.90;;;0.65;;
74512;SDS011;62992;52.052;8.550;2023-04-25T10:55:58;2.22;;;0.38;;
74512;SDS011;62992;52.052;8.550;2023-04-25T10:58:43;1.88;;;0.30;;
74512;SDS011;62992;52.052;8.550;2023-04-25T11:01:27;2.40;;;0.50;;
74512;SDS011;62992;52.052;8.550;2023-04-25T11:04:40;1.77;;;0.55;;
74512;SDS011;62992;52.052;8.550;2023-04-25T11:10:14;0.95;;;0.63;;
74512;SDS011;62992;52.052;8.550;2023-04-25T11:12:59;2.88;;;0.70;;
74512;SDS011;62992;52.052;8.550;2023-04-25T11:15:43;3.95;;;0.47;;
74512;SDS011;62992;52.052;8.550;2023-04-25T11:18:27;2.92;;;0.63;;
74512;SDS011;62992;52.052;8.550;2023-04-25T11:21:13;1.30;;;0.30;;
74512;SDS011;62992;52.052;8.550;2023-04-25T11:23:57;2.75;;;0.50;;
74512;SDS011;62992;52.052;8.550;2023-04-25T11:26:41;2.78;;;0.60;;
74512;SDS011;62992;52.052;8.550;2023-04-25T11:29:26;1.83;;;0.50;;
74512;SDS011;62992;52.052;8.550;2023-04-25T11:32:11;0.70;;;0.70;;
74512;SDS011;62992;52.052;8.550;2023-04-25T11:34:55;1.42;;;0.40;;
74512;SDS011;62992;52.052;8.550;2023-04-25T11:37:41;1.02;;;0.60;;
74512;SDS011;62992;52.052;8.550;2023-04-25T11:40:26;0.43;;;0.25;;
74512;SDS011;62992;52.052;8.550;2023-04-25T11:43:10;1.85;;;0.82;;
74512;SDS011;62992;52.052;8.550;2023-04-25T11:45:54;0.73;;;0.73;;
74512;SDS011;62992;52.052;8.550;2023-04-25T11:48:39;2.10;;;0.47;;
74512;SDS011;62992;52.052;8.550;2023-04-25T11:51:24;2.13;;;0.82;;
74512;SDS011;62992;52.052;8.550;2023-04-25T11:54:09;1.03;;;0.43;;
74512;SDS011;62992;52.052;8.550;2023-04-25T11:56:55;2.58;;;0.80;;
74512;SDS011;62992;52.052;8.550;2023-04-25T11:59:40;2.88;;;1.08;;
74512;SDS011;62992;52.052;8.550;2023-04-25T12:02:25;1.15;;;0.55;;
74512;SDS011;62992;52.052;8.550;2023-04-25T12:05:10;1.23;;;0.40;;
74512;SDS011;62992;52.052;8.550;2023-04-25T12:07:56;2.03;;;0.60;;
74512;SDS011;62992;52.052;8.550;2023-04-25T12:10:41;1.80;;;0.47;;
74512;SDS011;62992;52.052;8.550;2023-04-25T12:13:28;1.38;;;0.25;;
74512;SDS011;62992;52.052;8.550;2023-04-25T12:16:15;1.05;;;0.40;;
74512;SDS011;62992;52.052;8.550;2023-04-25T12:18:59;2.00;;;0.65;;
74512;SDS011;62992;52.052;8.550;2023-04-25T12:21:44;1.30;;;0.40;;
74512;SDS011;62992;52.052;8.550;2023-04-25T12:24:28;3.15;;;0.50;;
74512;SDS011;62992;52.052;8.550;2023-04-25T12:27:14;0.90;;;0.40;;
74512;SDS011;62992;52.052;8.550;2023-04-25T12:30:03;2.90;;;0.60;;
74512;SDS011;62992;52.052;8.550;2023-04-25T12:32:48;1.95;;;0.38;;
74512;SDS011;62992;52.052;8.550;2023-04-25T12:35:32;0.90;;;0.55;;
74512;SDS011;62992;52.052;8.550;2023-04-25T12:41:19;0.50;;;0.30;;
74512;SDS011;62992;52.052;8.550;2023-04-25T12:44:03;3.20;;;0.60;;
74512;SDS011;62992;52.052;8.550;2023-04-25T12:46:48;1.20;;;0.35;;
74512;SDS011;62992;52.052;8.550;2023-04-25T12:49:32;0.75;;;0.40;;
74512;SDS011;62992;52.052;8.550;2023-04-25T12:52:16;1.83;;;0.47;;
74512;SDS011;62992;52.052;8.550;2023-04-25T12:55:00;0.70;;;0.47;;
74512;SDS011;62992;52.052;8.550;2023-04-25T12:57:44;4.18;;;0.60;;
74512;SDS011;62992;52.052;8.550;2023-04-25T13:00:29;0.82;;;0.30;;
74512;SDS011;62992;52.052;8.550;2023-04-25T13:03:14;1.30;;;0.43;;
74512;SDS011;62992;52.052;8.550;2023-04-25T13:05:58;0.40;;;0.40;;
74512;SDS011;62992;52.052;8.550;2023-04-25T13:08:42;1.10;;;0.43;;
74512;SDS011;62992;52.052;8.550;2023-04-25T13:11:26;1.35;;;0.30;;
74512;SDS011;62992;52.052;8.550;2023-04-25T13:14:10;2.38;;;0.30;;
74512;SDS011;62992;52.052;8.550;2023-04-25T13:16:54;0.55;;;0.25;;
74512;SDS011;62992;52.052;8.550;2023-04-25T13:19:38;2.88;;;0.52;;
74512;SDS011;62992;52.052;8.550;2023-04-25T13:22:23;1.65;;;0.50;;
74512;SDS011;62992;52.052;8.550;2023-04-25T13:25:07;2.13;;;0.30;;
74512;SDS011;62992;52.052;8.550;2023-04-25T13:27:52;0.63;;;0.30;;
74512;SDS011;62992;52.052;8.550;2023-04-25T13:30:36;0.57;;;0.30;;
74512;SDS011;62992;52.052;8.550;2023-04-25T13:33:20;0.32;;;0.15;;
74512;SDS011;62992;52.052;8.550;2023-04-25T13:36:05;0.50;;;0.40;;
74512;SDS011;62992;52.052;8.550;2023-04-25T13:38:49;0.68;;;0.55;;
74512;SDS011;62992;52.052;8.550;2023-04-25T13:41:33;1.33;;;0.32;;
74512;SDS011;62992;52.052;8.550;2023-04-25T13:44:18;1.15;;;0.38;;
74512;SDS011;62992;52.052;8.550;2023-04-25T13:47:03;0.28;;;0.20;;
74512;SDS011;62992;52.052;8.550;2023-04-25T13:49:47;0.63;;;0.40;;
74512;SDS011;62992;52.052;8.550;2023-04-25T13:52:31;0.65;;;0.38;;
74512;SDS011;62992;52.052;8.550;2023-04-25T13:55:15;0.60;;;0.28;;
74512;SDS011;62992;52.052;8.550;2023-04-25T13:57:59;2.00;;;0.60;;
74512;SDS011;62992;52.052;8.550;2023-04-25T14:00:50;1.38;;;0.45;;
74512;SDS011;62992;52.052;8.550;2023-04-25T14:03:35;0.45;;;0.30;;
74512;SDS011;62992;52.052;8.550;2023-04-25T14:06:19;0.43;;;0.30;;
74512;SDS011;62992;52.052;8.550;2023-04-25T14:09:06;1.95;;;0.82;;
74512;SDS011;62992;52.052;8.550;2023-04-25T14:11:53;1.45;;;0.40;;
74512;SDS011;62992;52.052;8.550;2023-04-25T14:14:38;1.83;;;0.50;;
74512;SDS011;62992;52.052;8.550;2023-04-25T14:17:22;0.20;;;0.20;;
74512;SDS011;62992;52.052;8.550;2023-04-25T14:20:08;0.43;;;0.20;;
74512;SDS011;62992;52.052;8.550;2023-04-25T14:22:52;0.20;;;0.15;;
74512;SDS011;62992;52.052;8.550;2023-04-25T14:25:41;1.85;;;0.40;;
74512;SDS011;62992;52.052;8.550;2023-04-25T14:28:25;0.90;;;0.50;;
74512;SDS011;62992;52.052;8.550;2023-04-25T14:31:09;3.33;;;0.43;;
74512;SDS011;62992;52.052;8.550;2023-04-25T14:33:53;0.70;;;0.28;;
74512;SDS011;62992;52.052;8.550;2023-04-25T14:36:38;1.55;;;0.40;;
74512;SDS011;62992;52.052;8.550;2023-04-25T14:39:22;0.20;;;0.20;;
74512;SDS011;62992;52.052;8.550;2023-04-25T14:42:06;0.20;;;0.10;;
74512;SDS011;62992;52.052;8.550;2023-04-25T14:44:50;0.57;;;0.30;;
74512;SDS011;62992;52.052;8.550;2023-04-25T14:47:35;0.17;;;0.10;;
74512;SDS011;62992;52.052;8.550;2023-04-25T14:50:20;0.20;;;0.20;;
74512;SDS011;62992;52.052;8.550;2023-04-25T14:53:04;0.40;;;0.30;;
74512;SDS011;62992;52.052;8.550;2023-04-25T14:55:48;0.70;;;0.60;;
74512;SDS011;62992;52.052;8.550;2023-04-25T14:58:33;3.65;;;0.30;;
74512;SDS011;62992;52.052;8.550;2023-04-25T15:01:17;0.35;;;0.20;;
74512;SDS011;62992;52.052;8.550;2023-04-25T15:04:04;0.88;;;0.35;;
74512;SDS011;62992;52.052;8.550;2023-04-25T15:06:48;0.13;;;0.10;;
74512;SDS011;62992;52.052;8.550;2023-04-25T15:09:32;4.13;;;0.75;;
74512;SDS011;62992;52.052;8.550;2023-04-25T15:12:16;1.42;;;0.40;;
74512;SDS011;62992;52.052;8.550;2023-04-25T15:15:00;2.38;;;0.50;;
74512;SDS011;62992;52.052;8.550;2023-04-25T15:17:45;0.27;;;0.27;;
74512;SDS011;62992;52.052;8.550;2023-04-25T15:20:29;0.75;;;0.40;;
74512;SDS011;62992;52.052;8.550;2023-04-25T15:23:13;0.57;;;0.10;;
74512;SDS011;62992;52.052;8.550;2023-04-25T15:25:57;3.00;;;0.57;;
74512;SDS011;62992;52.052;8.550;2023-04-25T15:28:41;0.17;;;0.17;;
74512;SDS011;62992;52.052;8.550;2023-04-25T15:31:26;1.80;;;0.20;;
74512;SDS011;62992;52.052;8.550;2023-04-25T15:34:11;1.02;;;0.45;;
74512;SDS011;62992;52.052;8.550;2023-04-25T15:36:55;1.38;;;0.28;;
74512;SDS011;62992;52.052;8.550;2023-04-25T15:39:40;0.30;;;0.30;;
74512;SDS011;62992;52.052;8.550;2023-04-25T15:42:24;0.35;;;0.20;;
74512;SDS011;62992;52.052;8.550;2023-04-25T15:45:09;0.15;;;0.15;;
74512;SDS011;62992;52.052;8.550;2023-04-25T15:47:55;2.42;;;0.30;;
74512;SDS011;62992;52.052;8.550;2023-04-25T15:50:40;3.63;;;0.47;;
74512;SDS011;62992;52.052;8.550;2023-04-25T15:53:24;0.83;;;0.33;;
74512;SDS011;62992;52.052;8.550;2023-04-25T15:56:09;0.68;;;0.30;;
74512;SDS011;62992;52.052;8.550;2023-04-25T15:58:54;0.63;;;0.30;;
74512;SDS011;62992;52.052;8.550;2023-04-25T16:01:38;0.15;;;0.15;;
74512;SDS011;62992;52.052;8.550;2023-04-25T16:04:23;2.65;;;0.47;;
74512;SDS011;62992;52.052;8.550;2023-04-25T16:09:53;0.20;;;0.20;;
74512;SDS011;62992;52.052;8.550;2023-04-25T16:12:37;0.40;;;0.20;;
74512;SDS011;62992;52.052;8.550;2023-04-25T16:15:22;0.32;;;0.32;;
74512;SDS011;62992;52.052;8.550;2023-04-25T16:18:07;0.37;;;0.20;;
74512;SDS011;62992;52.052;8.550;2023-04-25T16:20:51;1.13;;;0.30;;
74512;SDS011;62992;52.052;8.550;2023-04-25T16:23:35;1.15;;;0.30;;
74512;SDS011;62992;52.052;8.550;2023-04-25T16:26:20;0.52;;;0.25;;
74512;SDS011;62992;52.052;8.550;2023-04-25T16:29:05;0.73;;;0.40;;
74512;SDS011;62992;52.052;8.550;2023-04-25T16:31:50;0.77;;;0.40;;
74512;SDS011;62992;52.052;8.550;2023-04-25T16:34:34;0.50;;;0.30;;
74512;SDS011;62992;52.052;8.550;2023-04-25T16:37:18;0.73;;;0.22;;
74512;SDS011;62992;52.052;8.550;2023-04-25T16:40:03;1.75;;;0.30;;
74512;SDS011;62992;52.052;8.550;2023-04-25T16:42:51;1.13;;;0.77;;
74512;SDS011;62992;52.052;8.550;2023-04-25T16:45:35;1.55;;;0.40;;
74512;SDS011;62992;52.052;8.550;2023-04-25T16:48:19;1.73;;;0.63;;
74512;SDS011;62992;52.052;8.550;2023-04-25T16:51:06;0.95;;;0.50;;